Time;durP1;ratioP1;P1;durP2;ratioP2;P2;SDS_P1;SDS_P2;PMS_P1;PMS_P2;Temp;Humidity;BMP_temperature;BMP_pressure;BME280_temperature;BME280_humidity;BME280_pressure;Samples;Min_cycle;Max_cycle;Signal;HPM_P1;HPM_P2
2022/09/19 00:01:37;;;;;;;1999.90;999.90;;;;;;;9.62;100.00;94112.53;6245250;22;20169;-58
2022/09/19 00:04:10;;;;;;;1999.90;999.90;;;;;;;9.62;100.00;94107.81;6245073;23;20156;-58
2022/09/19 00:06:38;;;;;;;1999.90;999.90;;;;;;;9.58;100.00;94109.88;6245620;23;20196;-57
2022/09/19 00:09:06;;;;;;;1999.90;999.90;;;;;;;9.55;100.00;94097.09;6270616;22;20188;-58
2022/09/19 00:11:31;;;;;;;1999.90;999.90;;;;;;;9.56;100.00;94093.22;6245429;23;20161;-59
2022/09/19 00:13:58;;;;;;;1999.90;999.90;;;;;;;9.49;100.00;94096.09;6244931;23;20230;-59
2022/09/19 00:16:27;;;;;;;1999.90;999.90;;;;;;;9.47;100.00;94084.84;6244953;22;20609;-59
2022/09/19 00:18:55;;;;;;;1999.90;999.90;;;;;;;9.49;100.00;94079.75;6270500;22;20174;-59
2022/09/19 00:21:29;;;;;;;1999.90;999.90;;;;;;;9.50;100.00;94078.56;6244760;22;20179;-60
2022/09/19 00:26:40;;;;;;;1999.90;999.90;;;;;;;9.49;100.00;94068.84;6246399;23;20176;-59
2022/09/19 00:29:07;;;;;;;1999.90;999.90;;;;;;;9.50;100.00;94067.66;6270902;22;20183;-61
2022/09/19 00:31:33;;;;;;;1999.90;999.90;;;;;;;9.46;100.00;94069.72;6270322;22;20169;-60
2022/09/19 00:34:00;;;;;;;1999.90;999.90;;;;;;;9.46;100.00;94072.44;6245366;22;20179;-60
2022/09/19 00:36:26;;;;;;;1999.90;999.90;;;;;;;9.40;100.00;94052.34;6271318;22;20246;-62
2022/09/19 00:38:51;;;;;;;1999.90;999.90;;;;;;;9.37;100.00;94058.63;6245373;23;20182;-60
2022/09/19 00:41:20;;;;;;;1999.90;999.90;;;;;;;9.30;100.00;94058.84;6244668;23;20159;-62
2022/09/19 00:43:50;;;;;;;1999.90;999.90;;;;;;;9.33;100.00;94063.41;6244732;23;20169;-63
2022/09/19 00:46:18;;;;;;;1999.90;999.90;;;;;;;9.35;100.00;94055.59;6244778;22;20590;-62
2022/09/19 00:48:45;;;;;;;1999.90;999.90;;;;;;;9.36;100.00;94051.66;6245527;23;20196;-62
2022/09/19 00:51:17;;;;;;;1999.90;999.90;;;;;;;9.33;100.00;94047.06;6271862;22;20185;-62
2022/09/19 00:53:45;;;;;;;1999.90;999.90;;;;;;;9.39;100.00;94039.91;6247141;23;20199;-60
2022/09/19 00:56:10;;;;;;;1999.90;999.90;;;;;;;9.38;100.00;94030.22;6246029;23;20229;-62
2022/09/19 00:58:39;;;;;;;1999.90;999.90;;;;;;;9.35;100.00;94022.91;6246113;22;20175;-61
2022/09/19 01:01:05;;;;;;;1999.90;999.90;;;;;;;9.34;100.00;94032.28;6271998;22;20256;-60
2022/09/19 01:03:31;;;;;;;1999.90;999.90;;;;;;;9.38;100.00;94015.81;6271737;22;20503;-61
2022/09/19 01:06:16;;;;;;;1999.90;999.90;;;;;;;9.35;100.00;94008.50;6272156;22;20171;-60
2022/09/19 01:08:54;;;;;;;1999.90;999.90;;;;;;;9.34;100.00;94001.53;6271746;22;20195;-61
2022/09/19 01:11:29;;;;;;;1999.90;999.90;;;;;;;9.37;100.00;93992.50;6246394;23;20682;-60
2022/09/19 01:14:07;;;;;;;1999.90;999.90;;;;;;;9.30;100.00;93993.47;6271850;22;20172;-60
2022/09/19 01:16:42;;;;;;;1999.90;999.90;;;;;;;9.32;100.00;93985.63;6271734;22;20173;-60
2022/09/19 01:19:55;;;;;;;1999.90;999.90;;;;;;;9.32;100.00;93973.94;6272553;22;20171;-60
2022/09/19 01:22:50;;;;;;;1999.90;999.90;;;;;;;9.33;100.00;93968.06;6155148;23;20189;-60
2022/09/19 01:25:49;;;;;;;1999.90;999.90;;;;;;;9.20;100.00;93966.50;6200279;23;20249;-61
2022/09/19 01:28:36;;;;;;;1999.90;999.90;;;;;;;9.16;100.00;93961.16;6246376;23;20256;-61
2022/09/19 01:31:17;;;;;;;1999.90;999.90;;;;;;;9.28;100.00;93962.38;6246307;23;20171;-60
2022/09/19 01:34:06;;;;;;;1999.90;999.90;;;;;;;9.33;100.00;93959.91;6271722;22;20167;-61
2022/09/19 01:36:51;;;;;;;1999.90;999.90;;;;;;;9.35;100.00;93962.97;6272238;22;20161;-61
2022/09/19 01:39:23;;;;;;;1999.90;999.90;;;;;;;9.00;100.00;93993.09;6246549;23;20168;-61
2022/09/19 01:41:53;;;;;;;1999.90;999.90;;;;;;;8.94;100.00;93992.84;6271931;22;20534;-61
2022/09/19 01:44:21;;;;;;;1999.90;999.90;;;;;;;8.68;100.00;93998.53;6246008;23;20178;-61
2022/09/19 01:46:49;;;;;;;1999.90;999.90;;;;;;;8.59;100.00;94022.84;6245730;22;20161;-62
2022/09/19 01:49:31;;;;;;;1999.90;999.90;;;;;;;8.45;100.00;94037.53;6271768;22;20186;-60
2022/09/19 01:52:29;;;;;;;1999.90;999.90;;;;;;;8.38;100.00;94032.25;6245607;23;20622;-61
2022/09/19 01:55:25;;;;;;;1999.90;999.90;;;;;;;8.32;100.00;94044.81;6222826;23;20171;-62
2022/09/19 01:58:07;;;;;;;1999.90;999.90;;;;;;;8.29;100.00;94045.66;6234193;23;20174;-62
2022/09/19 02:00:38;;;;;;;1999.90;999.90;;;;;;;8.24;100.00;94038.00;6245812;23;20170;-60
2022/09/19 02:03:36;;;;;;;1999.90;999.90;;;;;;;8.24;100.00;94037.22;6271755;22;20175;-60
2022/09/19 02:06:07;;;;;;;1999.90;999.90;;;;;;;8.21;100.00;94055.16;6271805;22;20222;-59
2022/09/19 02:08:55;;;;;;;1999.90;999.90;;;;;;;8.18;100.00;94053.25;6271876;22;20191;-59
2022/09/19 02:11:22;;;;;;;1999.90;999.90;;;;;;;8.25;100.00;94050.41;6245971;23;20197;-59
2022/09/19 02:13:55;;;;;;;1999.90;999.90;;;;;;;8.26;100.00;94051.94;6271794;22;20171;-61
2022/09/19 02:16:33;;;;;;;1999.90;999.90;;;;;;;8.34;100.00;94056.03;6245760;23;20258;-59
2022/09/19 02:19:08;;;;;;;1999.90;999.90;;;;;;;8.31;100.00;94059.59;6246550;23;20191;-61
2022/09/19 02:21:45;;;;;;;1999.90;999.90;;;;;;;8.30;100.00;94058.06;6246342;23;20578;-60
2022/09/19 02:24:14;;;;;;;1999.90;999.90;;;;;;;8.31;100.00;94054.16;6246378;23;20173;-60
2022/09/19 02:26:42;;;;;;;1999.90;999.90;;;;;;;8.25;100.00;94057.78;6245692;23;20172;-60
2022/09/19 02:29:12;;;;;;;1999.90;999.90;;;;;;;8.27;100.00;94052.72;6271025;22;20637;-60
2022/09/19 02:31:38;;;;;;;1999.90;999.90;;;;;;;8.23;100.00;94060.94;6245726;23;20595;-59
2022/09/19 02:34:07;;;;;;;1999.90;999.90;;;;;;;8.19;100.00;94059.47;6245627;22;20177;-59
2022/09/19 02:36:50;;;;;;;1999.90;999.90;;;;;;;8.15;100.00;94062.25;6245953;22;20547;-59
2022/09/19 02:39:19;;;;;;;1999.90;999.90;;;;;;;8.13;100.00;94069.28;6271869;22;20207;-59
2022/09/19 02:41:55;;;;;;;1999.90;999.90;;;;;;;8.05;100.00;94060.50;6271904;22;20178;-59
2022/09/19 02:44:30;;;;;;;1999.90;999.90;;;;;;;7.99;100.00;94059.47;6246158;23;20169;-60
2022/09/19 02:47:11;;;;;;;1999.90;999.90;;;;;;;8.01;100.00;94059.81;6246134;23;20554;-60
2022/09/19 02:49:50;;;;;;;1999.90;999.90;;;;;;;8.03;100.00;94057.44;6271563;22;20198;-61
2022/09/19 02:52:20;;;;;;;1999.90;999.90;;;;;;;8.02;100.00;94053.22;6271551;22;20166;-59
2022/09/19 02:54:54;;;;;;;1999.90;999.90;;;;;;;8.02;100.00;94050.50;6246093;23;20166;-60
2022/09/19 02:57:22;;;;;;;1999.90;999.90;;;;;;;8.01;100.00;94046.22;6267871;22;20179;-60
2022/09/19 02:59:51;;;;;;;1999.90;999.90;;;;;;;7.99;100.00;94047.81;6271024;22;20248;-60
2022/09/19 03:02:25;;;;;;;1999.90;999.90;;;;;;;7.99;100.00;94042.41;6271064;22;20543;-59
2022/09/19 03:04:57;;;;;;;1999.90;999.90;;;;;;;7.97;100.00;94050.22;6246099;23;20211;-60
2022/09/19 03:07:27;;;;;;;1999.90;999.90;;;;;;;7.96;100.00;94049.44;6245919;23;20699;-59
2022/09/19 03:10:25;;;;;;;1999.90;999.90;;;;;;;7.93;100.00;94039.41;6246627;22;20182;-60
2022/09/19 03:12:55;;;;;;;1999.90;999.90;;;;;;;7.91;100.00;94044.50;6247768;22;20183;-60
2022/09/19 03:15:49;;;;;;;1999.90;999.90;;;;;;;7.90;100.00;94040.22;6246093;22;20253;-59
2022/09/19 03:18:18;;;;;;;1999.90;999.90;;;;;;;7.85;100.00;94043.44;6268072;22;20182;-59
2022/09/19 03:20:53;;;;;;;1999.90;999.90;;;;;;;7.81;100.00;94042.75;6245265;22;20229;-59
2022/09/19 03:23:24;;;;;;;1999.90;999.90;;;;;;;7.83;100.00;94045.06;6246234;23;20517;-59
2022/09/19 03:25:49;;;;;;;1999.90;999.90;;;;;;;7.76;100.00;94040.50;6245720;23;20169;-60
2022/09/19 03:28:19;;;;;;;1999.90;999.90;;;;;;;7.75;100.00;94038.97;6245546;23;20198;-59
2022/09/19 03:30:45;;;;;;;1999.90;999.90;;;;;;;7.69;100.00;94037.97;6271340;22;20166;-59
2022/09/19 03:33:11;;;;;;;1999.90;999.90;;;;;;;7.69;100.00;94050.75;6244896;22;20174;-59
2022/09/19 03:35:37;;;;;;;1999.90;999.90;;;;;;;7.69;100.00;94029.81;6270769;22;20265;-59
2022/09/19 03:38:02;;;;;;;1999.90;999.90;;;;;;;7.67;100.00;94025.94;6271322;22;20489;-59
2022/09/19 03:40:28;;;;;;;1999.90;999.90;;;;;;;7.63;100.00;94031.47;6270836;22;20174;-59
2022/09/19 03:42:53;;;;;;;1999.90;999.90;;;;;;;7.64;100.00;94024.84;6270936;22;20235;-59
2022/09/19 03:45:18;;;;;;;1999.90;999.90;;;;;;;7.61;100.00;94036.53;6270700;22;20288;-60
2022/09/19 03:47:44;;;;;;;1999.90;999.90;;;;;;;7.64;100.00;94033.00;6270380;22;20209;-61
2022/09/19 03:50:09;;;;;;;1999.90;999.90;;;;;;;7.61;100.00;94022.94;6270431;22;20178;-59
2022/09/19 03:52:34;;;;;;;1999.90;999.90;;;;;;;7.57;100.00;94027.69;6245459;23;20169;-59
2022/09/19 03:55:00;;;;;;;1999.90;999.90;;;;;;;7.56;100.00;94030.81;6270644;22;20161;-59
2022/09/19 03:57:25;;;;;;;1999.90;999.90;;;;;;;7.55;100.00;94026.59;6245330;23;20175;-59
2022/09/19 03:59:51;;;;;;;1999.90;999.90;;;;;;;7.52;100.00;94030.91;6270966;22;20173;-58
2022/09/19 04:02:16;;;;;;;1999.90;999.90;;;;;;;7.52;100.00;94036.34;6270636;22;20167;-62
2022/09/19 04:04:41;;;;;;;1999.90;999.90;;;;;;;7.49;100.00;94037.16;6270849;22;20226;-59
2022/09/19 04:07:07;;;;;;;1999.90;999.90;;;;;;;7.45;100.00;94035.69;6270364;22;20183;-58
2022/09/19 04:09:33;;;;;;;1999.90;999.90;;;;;;;7.44;100.00;94045.81;6270190;22;20540;-58
2022/09/19 04:11:59;;;;;;;1999.90;999.90;;;;;;;7.40;100.00;94053.25;6245139;22;20238;-57
2022/09/19 04:14:26;;;;;;;1999.90;999.90;;;;;;;7.35;100.00;94048.28;6270529;22;20194;-58
2022/09/19 04:16:51;;;;;;;1999.90;999.90;;;;;;;7.28;100.00;94047.66;6270953;22;20173;-58
2022/09/19 04:19:17;;;;;;;1999.90;999.90;;;;;;;7.22;100.00;94060.94;6270371;22;20482;-59
2022/09/19 04:21:42;;;;;;;1999.90;999.90;;;;;;;7.20;100.00;94063.28;6270246;22;20156;-58
2022/09/19 04:24:17;;;;;;;1999.90;999.90;;;;;;;7.17;100.00;94058.69;6272218;22;20475;-60
2022/09/19 04:26:43;;;;;;;1999.90;999.90;;;;;;;7.05;100.00;94051.13;6272535;22;20185;-58
2022/09/19 04:29:09;;;;;;;1999.90;999.90;;;;;;;7.10;100.00;94064.22;6271443;22;20185;-58
2022/09/19 04:31:41;;;;;;;1999.90;999.90;;;;;;;7.08;100.00;94055.75;6246762;23;20196;-58
2022/09/19 04:34:08;;;;;;;1999.90;999.90;;;;;;;7.11;100.00;94048.72;6246724;23;20161;-58
2022/09/19 04:36:34;;;;;;;1999.90;999.90;;;;;;;7.06;100.00;94058.09;6271706;22;20159;-57
2022/09/19 04:39:02;;;;;;;1999.90;999.90;;;;;;;7.07;100.00;94048.78;6246084;22;20163;-59
2022/09/19 04:41:32;;;;;;;1999.90;999.90;;;;;;;7.08;100.00;94066.59;6271323;22;20172;-58
2022/09/19 04:43:58;;;;;;;1999.90;999.90;;;;;;;7.07;100.00;94059.66;6245789;23;20240;-59
2022/09/19 04:46:23;;;;;;;1999.90;999.90;;;;;;;7.09;100.00;94057.28;6246004;22;20519;-58
2022/09/19 04:48:49;;;;;;;1999.90;999.90;;;;;;;7.10;100.00;94064.22;6245829;22;20182;-58
2022/09/19 04:51:16;;;;;;;1999.90;999.90;;;;;;;7.07;100.00;94056.94;6246081;23;20186;-58
2022/09/19 04:53:41;;;;;;;1999.90;999.90;;;;;;;7.13;100.00;94060.69;6246355;23;20167;-58
2022/09/19 04:56:07;;;;;;;1999.90;999.90;;;;;;;7.10;100.00;94064.22;6246500;22;20219;-58
2022/09/19 04:58:32;;;;;;;1999.90;999.90;;;;;;;7.08;100.00;94063.09;6246164;23;20164;-58
2022/09/19 05:00:57;;;;;;;1999.90;999.90;;;;;;;6.91;100.00;94064.94;6246084;23;20173;-59
2022/09/19 05:03:30;;;;;;;1999.90;999.90;;;;;;;6.83;100.00;94053.44;6271454;22;20464;-60
2022/09/19 05:05:56;;;;;;;1999.90;999.90;;;;;;;7.04;100.00;94052.31;6246729;23;20217;-61
2022/09/19 05:08:25;;;;;;;1999.90;999.90;;;;;;;7.09;100.00;94057.28;6246381;22;20239;-58
2022/09/19 05:10:54;;;;;;;1999.90;999.90;;;;;;;7.11;100.00;94060.34;6271448;22;20179;-61
2022/09/19 05:13:24;;;;;;;1999.90;999.90;;;;;;;7.15;100.00;94066.47;6245733;22;20289;-61
2022/09/19 05:15:51;;;;;;;1999.90;999.90;;;;;;;7.17;100.00;94069.53;6271393;22;20488;-58
2022/09/19 05:18:21;;;;;;;1999.90;999.90;;;;;;;7.29;100.00;94058.09;6271808;22;20619;-58
2022/09/19 05:20:47;;;;;;;1999.90;999.90;;;;;;;7.32;100.00;94059.97;6245451;23;20166;-60
2022/09/19 05:23:13;;;;;;;1999.90;999.90;;;;;;;7.40;100.00;94071.47;6245883;22;20243;-60
2022/09/19 05:25:40;;;;;;;1999.90;999.90;;;;;;;7.45;100.00;94074.47;6246166;22;20550;-60
2022/09/19 05:28:06;;;;;;;1999.90;999.90;;;;;;;7.49;100.00;94077.91;6245709;22;20518;-61
2022/09/19 05:30:33;;;;;;;1999.90;999.90;;;;;;;7.47;100.00;94085.69;6246379;23;20177;-60
2022/09/19 05:32:59;;;;;;;1999.90;999.90;;;;;;;7.43;100.00;94092.38;6245694;23;20162;-60
2022/09/19 05:35:25;;;;;;;1999.90;999.90;;;;;;;7.60;100.00;94092.06;6271222;22;20170;-58
2022/09/19 05:37:51;;;;;;;1999.90;999.90;;;;;;;7.64;100.00;94097.41;6245493;22;20216;-60
2022/09/19 05:40:17;;;;;;;1999.90;999.90;;;;;;;7.52;100.00;94112.38;6272109;22;20162;-58
2022/09/19 05:42:46;;;;;;;1999.90;999.90;;;;;;;7.57;100.00;94114.59;6271757;22;20170;-59
2022/09/19 05:45:13;;;;;;;1999.90;999.90;;;;;;;7.59;100.00;94106.03;6245827;23;20185;-62
2022/09/19 05:47:39;;;;;;;1999.90;999.90;;;;;;;7.58;100.00;94127.00;6245977;23;20248;-61
2022/09/19 05:50:07;;;;;;;1999.90;999.90;;;;;;;7.57;100.00;94128.19;6245772;23;20189;-61
2022/09/19 05:55:18;;;;;;;1999.90;999.90;;;;;;;7.69;100.00;94133.03;6247313;23;20169;-59
2022/09/19 05:57:52;;;;;;;1999.90;999.90;;;;;;;7.72;100.00;94136.88;6270821;22;20242;-67
2022/09/19 06:00:22;;;;;;;1999.90;999.90;;;;;;;7.77;100.00;94145.31;6272127;22;20166;-61
2022/09/19 06:03:01;;;;;;;1999.90;999.90;;;;;;;7.94;100.00;94138.75;6245551;23;20250;-61
2022/09/19 06:05:32;;;;;;;1999.90;999.90;;;;;;;8.01;100.00;94146.03;6271161;22;20242;-62
2022/09/19 06:07:58;;;;;;;1999.90;999.90;;;;;;;8.10;100.00;94155.19;6271363;22;20210;-65
2022/09/19 06:10:24;;;;;;;1999.90;999.90;;;;;;;8.22;100.00;94170.88;6245815;23;20170;-62
2022/09/19 06:12:50;;;;;;;1999.90;999.90;;;;;;;8.27;100.00;94184.00;6245936;22;20192;-60
2022/09/19 06:15:16;;;;;;;1999.90;999.90;;;;;;;8.30;100.00;94199.47;6271177;22;20222;-61
2022/09/19 06:17:41;;;;;;;1999.90;999.90;;;;;;;8.33;100.00;94209.53;6245643;23;20160;-62
2022/09/19 06:20:08;;;;;;;1999.90;999.90;;;;;;;8.42;100.00;94223.34;6271056;22;20163;-62
2022/09/19 06:22:34;;;;;;;1999.90;999.90;;;;;;;8.43;100.00;94224.09;6245736;22;20241;-61
2022/09/19 06:25:00;;;;;;;1999.90;999.90;;;;;;;8.40;100.00;94247.47;6245680;22;20174;-62
2022/09/19 06:27:27;;;;;;;1999.90;999.90;;;;;;;8.40;100.00;94269.25;6270807;22;20622;-60
2022/09/19 06:29:53;;;;;;;1999.90;999.90;;;;;;;8.51;100.00;94279.91;6245277;22;20171;-61
2022/09/19 06:32:19;;;;;;;1999.90;999.90;;;;;;;8.46;100.00;94286.63;6245912;22;20155;-60
2022/09/19 06:34:45;;;;;;;1999.90;999.90;;;;;;;8.52;100.00;94298.53;6245828;23;20167;-61
2022/09/19 06:37:11;;;;;;;1999.90;999.90;;;;;;;8.54;100.00;94307.06;6270757;22;20217;-60
2022/09/19 06:39:37;;;;;;;1999.90;999.90;;;;;;;8.49;100.00;94314.94;6270975;22;20601;-60
2022/09/19 06:42:03;;;;;;;1999.90;999.90;;;;;;;8.57;100.00;94317.13;6271102;22;20175;-61
2022/09/19 06:44:30;;;;;;;1999.90;999.90;;;;;;;8.58;100.00;94329.53;6243930;22;20194;-62
2022/09/19 06:46:55;;;;;;;1999.90;999.90;;;;;;;8.62;100.00;94340.34;6270749;22;20168;-62
2022/09/19 06:49:21;;;;;;;1999.90;999.90;;;;;;;8.65;100.00;94340.28;6245417;23;20521;-61
2022/09/19 06:51:46;;;;;;;1999.90;999.90;;;;;;;8.75;100.00;94350.19;6270586;22;20190;-61
2022/09/19 06:54:12;;;;;;;1999.90;999.90;;;;;;;8.70;100.00;94347.97;6270457;22;20189;-62
2022/09/19 06:56:37;;;;;;;1999.90;999.90;;;;;;;8.79;100.00;94361.81;6270843;22;20168;-61
2022/09/19 06:59:03;;;;;;;1999.90;999.90;;;;;;;8.80;100.00;94360.63;6271188;22;20505;-61
2022/09/19 07:01:29;;;;;;;1999.90;999.90;;;;;;;8.90;100.00;94364.34;6271059;22;20605;-62
2022/09/19 07:03:54;;;;;;;1999.90;999.90;;;;;;;9.04;100.00;94362.09;6271031;22;20174;-61
2022/09/19 07:06:20;;;;;;;1999.90;999.90;;;;;;;9.29;100.00;94367.09;6271394;22;20159;-63
2022/09/19 07:08:45;;;;;;;1999.90;999.90;;;;;;;9.31;100.00;94381.81;6270836;22;20185;-63
2022/09/19 07:11:10;;;;;;;1999.90;999.90;;;;;;;9.18;100.00;94389.06;6270939;22;20167;-61
2022/09/19 07:13:36;;;;;;;1999.90;999.90;;;;;;;9.18;100.00;94399.97;6271135;22;20590;-61
2022/09/19 07:16:03;;;;;;;1999.90;999.90;;;;;;;9.32;100.00;94413.31;6270379;22;20179;-60
2022/09/19 07:18:34;;;;;;;1999.90;999.90;;;;;;;9.32;100.00;94420.69;6270903;22;20167;-61
2022/09/19 07:21:00;;;;;;;1999.90;999.90;;;;;;;9.26;100.00;94423.16;6245528;23;20172;-65
2022/09/19 07:23:25;;;;;;;1999.90;999.90;;;;;;;9.15;100.00;94433.47;6271489;22;20170;-61
2022/09/19 07:25:54;;;;;;;1999.90;999.90;;;;;;;9.27;100.00;94446.50;6270601;22;20564;-63
2022/09/19 07:28:20;;;;;;;1999.90;999.90;;;;;;;9.23;100.00;94453.97;6270808;22;20192;-63
2022/09/19 07:30:47;;;;;;;1999.90;999.90;;;;;;;9.34;100.00;94462.72;6245702;23;20201;-62
2022/09/19 07:33:15;;;;;;;1999.90;999.90;;;;;;;9.37;100.00;94464.56;6245113;23;20183;-61
2022/09/19 07:35:41;;;;;;;1999.90;999.90;;;;;;;9.42;100.00;94469.56;6270877;22;20194;-63
2022/09/19 07:38:18;;;;;;;1999.90;999.90;;;;;;;9.38;100.00;94479.75;6245573;22;20204;-61
2022/09/19 07:40:44;;;;;;;1999.90;999.90;;;;;;;9.40;100.00;94491.00;6245672;23;20172;-60
2022/09/19 07:43:13;;;;;;;1999.90;999.90;;;;;;;9.55;100.00;94492.25;6245809;23;20168;-60
2022/09/19 07:45:44;;;;;;;1999.90;999.90;;;;;;;9.58;100.00;94499.59;6245547;23;20198;-60
2022/09/19 07:48:09;;;;;;;1999.90;999.90;;;;;;;9.75;100.00;94509.41;6244929;22;20255;-61
2022/09/19 07:50:35;;;;;;;1999.90;999.90;;;;;;;9.85;100.00;94503.00;6270763;22;20192;-60
2022/09/19 07:53:06;;;;;;;1999.90;999.90;;;;;;;10.26;100.00;94499.81;6270507;22;20161;-62
2022/09/19 07:55:32;;;;;;;1999.90;999.90;;;;;;;11.15;100.00;94494.59;6245062;23;20161;-61
2022/09/19 07:57:58;;;;;;;1999.90;999.90;;;;;;;11.67;100.00;94491.72;6244777;23;20165;-60
2022/09/19 08:00:26;;;;;;;1999.90;999.90;;;;;;;11.64;100.00;94517.97;6244861;22;20248;-60
2022/09/19 08:03:01;;;;;;;1999.90;999.90;;;;;;;11.44;100.00;94552.06;6270834;22;20161;-60
2022/09/19 08:05:28;;;;;;;1999.90;999.90;;;;;;;11.28;100.00;94574.69;6244870;22;20203;-60
2022/09/19 08:07:55;;;;;;;1999.90;999.90;;;;;;;10.96;100.00;94582.13;6270238;22;20179;-62
2022/09/19 08:10:21;;;;;;;1999.90;999.90;;;;;;;11.00;100.00;94591.00;6245532;23;20162;-60
2022/09/19 08:12:48;;;;;;;1999.90;999.90;;;;;;;11.03;100.00;94590.91;6245166;22;20196;-60
2022/09/19 08:15:15;;;;;;;1999.90;999.90;;;;;;;10.97;100.00;94602.78;6245253;22;20180;-60
2022/09/19 08:17:42;;;;;;;1999.90;999.90;;;;;;;11.02;100.00;94611.22;6245326;22;20167;-64
2022/09/19 08:20:08;;;;;;;1999.90;999.90;;;;;;;11.02;100.00;94610.44;6244712;22;20174;-60
2022/09/19 08:22:34;;;;;;;1999.90;999.90;;;;;;;11.20;100.00;94616.28;6271333;22;20187;-61
2022/09/19 08:25:00;;;;;;;1999.90;999.90;;;;;;;11.50;100.00;94610.47;6270493;22;20193;-61
2022/09/19 08:27:26;;;;;;;1999.90;999.90;;;;;;;11.56;100.00;94622.44;6245141;22;20192;-61
2022/09/19 08:29:51;;;;;;;1999.90;999.90;;;;;;;11.76;100.00;94623.91;6270581;22;20196;-61
2022/09/19 08:32:17;;;;;;;1999.90;999.90;;;;;;;11.72;100.00;94619.72;6246074;22;20159;-60
2022/09/19 08:34:42;;;;;;;1999.90;999.90;;;;;;;11.70;100.00;94633.84;6270565;22;20550;-60
2022/09/19 08:37:07;;;;;;;1999.90;999.90;;;;;;;11.47;100.00;94638.69;6245234;23;20185;-60
2022/09/19 08:39:33;;;;;;;1999.90;999.90;;;;;;;11.53;100.00;94647.91;6270366;22;20158;-60
2022/09/19 08:42:07;;;;;;;1999.90;999.90;;;;;;;11.50;100.00;94657.72;6244904;23;20284;-61
2022/09/19 08:44:51;;;;;;;1999.90;999.90;;;;;;;11.17;100.00;94671.78;6270002;22;20160;-61
2022/09/19 08:47:20;;;;;;;1999.90;999.90;;;;;;;11.09;100.00;94660.25;6270736;22;20234;-61
2022/09/19 08:49:53;;;;;;;1999.90;999.90;;;;;;;11.28;100.00;94664.13;6244891;22;20165;-61
2022/09/19 08:52:28;;;;;;;1999.90;999.90;;;;;;;11.47;100.00;94663.31;6244926;23;20165;-60
2022/09/19 08:54:54;;;;;;;1999.90;999.90;;;;;;;11.49;100.00;94664.41;6270029;22;20165;-62
2022/09/19 08:57:25;;;;;;;1999.90;999.90;;;;;;;11.70;100.00;94665.88;6244339;22;20171;-61
2022/09/19 08:59:56;;;;;;;1999.90;999.90;;;;;;;12.99;100.00;94645.19;6245186;23;20172;-59
2022/09/19 09:02:37;;;;;;;1999.90;999.90;;;;;;;13.41;100.00;94654.09;6244274;23;20209;-63
2022/09/19 09:05:02;;;;;;;1999.90;999.90;;;;;;;13.49;100.00;94656.19;6270354;22;20238;-60
2022/09/19 09:07:45;;;;;;;1999.90;999.90;;;;;;;13.38;100.00;94663.19;6244296;23;20168;-59
2022/09/19 09:10:24;;;;;;;1999.90;999.90;;;;;;;13.48;100.00;94676.59;6271284;22;20169;-60
2022/09/19 09:12:58;;;;;;;1999.90;999.90;;;;;;;13.64;100.00;94667.47;6246178;23;20203;-59
2022/09/19 09:15:58;;;;;;;1999.90;999.90;;;;;;;13.59;100.00;94671.56;6272137;22;20150;-60
2022/09/19 09:18:44;;;;;;;1999.90;999.90;;;;;;;13.38;100.00;94674.94;6271014;22;20490;-60
2022/09/19 09:21:31;;;;;;;1999.90;999.90;;;;;;;13.32;100.00;94681.44;6271253;22;20175;-59
2022/09/19 09:24:14;;;;;;;1999.90;999.90;;;;;;;13.44;100.00;94677.91;6271814;22;20157;-60
2022/09/19 09:26:43;;;;;;;1999.90;999.90;;;;;;;13.56;100.00;94677.13;6246586;23;20153;-60
2022/09/19 09:29:29;;;;;;;1999.90;999.90;;;;;;;13.93;100.00;94674.38;6271818;22;20242;-59
2022/09/19 09:32:30;;;;;;;1999.90;999.90;;;;;;;14.42;100.00;94667.22;6246118;23;20168;-61
2022/09/19 09:35:18;;;;;;;1999.90;999.90;;;;;;;15.32;100.00;94645.06;6264240;22;20169;-60
2022/09/19 09:37:53;;;;;;;1999.90;999.90;;;;;;;15.80;100.00;94653.38;6246358;23;20172;-59
2022/09/19 09:43:20;;;;;;;1999.90;999.90;;;;;;;17.39;100.00;94644.50;6247324;23;20175;-60
2022/09/19 09:45:49;;;;;;;1999.90;999.90;;;;;;;17.46;100.00;94746.34;6271756;22;20232;-61
2022/09/19 09:48:26;;;;;;;1999.90;999.90;;;;;;;17.37;100.00;94798.81;6245597;22;20185;-60
2022/09/19 09:51:28;;;;;;;1999.90;999.90;;;;;;;17.02;100.00;94552.78;6245792;23;20200;-60
2022/09/19 09:53:54;;;;;;;1999.90;999.90;;;;;;;16.86;100.00;94566.94;6271856;22;20172;-60
2022/09/19 09:56:45;;;;;;;1999.90;999.90;;;;;;;15.76;100.00;94574.88;6270354;22;20168;-59
2022/09/19 10:05:54;;;;;;;1999.90;999.90;;;;;;;16.39;100.00;94517.81;6247250;23;20248;-60
2022/09/19 10:09:16;;;;;;;1999.90;999.90;;;;;;;16.83;100.00;94633.28;6237171;23;20185;-59
2022/09/19 10:11:52;;;;;;;1999.90;999.90;;;;;;;17.06;100.00;94693.34;6238555;23;20161;-60
2022/09/19 10:14:25;;;;;;;1999.90;999.90;;;;;;;16.97;100.00;94702.38;6246642;23;20165;-59
2022/09/19 10:16:56;;;;;;;1999.90;999.90;;;;;;;16.46;100.00;94700.69;6245500;23;20252;-60
2022/09/19 10:19:40;;;;;;;1999.90;999.90;;;;;;;16.30;100.00;94691.47;6246310;23;20164;-59
2022/09/19 10:22:15;;;;;;;1999.90;999.90;;;;;;;16.40;100.00;94700.50;6246165;23;20243;-60
2022/09/19 10:24:51;;;;;;;1999.90;999.90;;;;;;;16.37;100.00;94789.59;6271635;22;20176;-60
2022/09/19 10:27:23;;;;;;;1999.90;999.90;;;;;;;16.31;100.00;94808.72;6245571;23;20244;-59
2022/09/19 10:30:00;;;;;;;1999.90;999.90;;;;;;;16.36;100.00;94959.72;6246717;22;20248;-60
2022/09/19 10:32:34;;;;;;;1999.90;999.90;;;;;;;16.29;100.00;94997.81;6271133;22;20261;-60
2022/09/19 10:35:00;;;;;;;1999.90;999.90;;;;;;;16.32;100.00;95002.41;6246175;23;20164;-60
2022/09/19 10:37:27;;;;;;;1999.90;999.90;;;;;;;16.26;100.00;94999.47;6245314;23;20164;-59
2022/09/19 10:39:59;;;;;;;1999.90;999.90;;;;;;;16.13;100.00;95012.53;6270864;22;20219;-59
2022/09/19 10:42:33;;;;;;;1999.90;999.90;;;;;;;16.25;100.00;95030.97;6245978;23;20243;-59
2022/09/19 10:44:59;;;;;;;1999.90;999.90;;;;;;;16.42;100.00;95028.84;6245406;23;20164;-61
2022/09/19 10:47:28;;;;;;;1999.90;999.90;;;;;;;16.39;100.00;95041.50;6245594;23;20171;-61
2022/09/19 10:50:00;;;;;;;1999.90;999.90;;;;;;;16.08;100.00;95070.19;6244963;23;20193;-61
2022/09/19 10:52:30;;;;;;;1999.90;999.90;;;;;;;15.97;100.00;95076.06;6246174;23;20164;-61
2022/09/19 10:54:58;;;;;;;1999.90;999.90;;;;;;;15.84;100.00;95080.84;6271073;22;20244;-61
2022/09/19 10:57:36;;;;;;;1999.90;999.90;;;;;;;15.98;100.00;95068.56;6271185;22;20165;-61
2022/09/19 11:00:03;;;;;;;1999.90;999.90;;;;;;;15.90;100.00;95095.59;6246004;23;20247;-60
2022/09/19 11:02:29;;;;;;;1999.90;999.90;;;;;;;16.07;100.00;95124.50;6245405;23;20157;-61
2022/09/19 11:05:03;;;;;;;1999.90;999.90;;;;;;;16.14;100.00;95129.78;6271116;22;20161;-61
2022/09/19 11:07:44;;;;;;;1999.90;999.90;;;;;;;16.13;100.00;95157.78;6270717;22;20172;-61
2022/09/19 11:10:33;;;;;;;1999.90;999.90;;;;;;;16.12;100.00;95181.81;6271154;22;20149;-61
2022/09/19 11:13:16;;;;;;;1999.90;999.90;;;;;;;15.98;100.00;95217.31;6245744;23;20539;-61
2022/09/19 11:15:49;;;;;;;1999.90;999.90;;;;;;;16.13;100.00;95241.22;6245981;23;20172;-62
2022/09/19 11:18:49;;;;;;;1999.90;999.90;;;;;;;16.51;100.00;95234.91;6271128;22;20165;-61
2022/09/19 11:21:49;;;;;;;1999.90;999.90;;;;;;;16.16;100.00;95300.19;6229350;23;20193;-60
2022/09/19 11:24:45;;;;;;;1999.90;999.90;;;;;;;16.67;100.00;95303.72;6245154;23;20183;-61
2022/09/19 11:27:34;;;;;;;1999.90;999.90;;;;;;;17.12;100.00;95313.16;6220996;22;20247;-61